PWSweather.com
Personal Weather Stations
Station Observations
INORDPAS37
Bondues, BonduesFR 59910

BonduesBonduesFR 59910

Lat: 50.7, Lon: 3.09

Elevation: 102

Station Type: Netatmo

http://bondues.meteoamikuze.com

High Low Average
Temperature 44.2°F6.8°C 34.2°F1.2°C 39.0°F3.9°C
Dew Point 30.7°F-0.7°C 23.2°F-4.9°C 26.8°F-2.9°C
Winds 5.6 mph 9.0 kmh 1.3 mph 2.1 kmh 3.0 mph WSW4.8 kmh WSW
Wind Gusts 12.5 mph20.1 kmh 2.5 mph4.0 kmh 7.0 mph11.3 kmh
Humidity 70% 59% 67%
Pressure 29.86 in1011.2 mb 29.69 in1005.4 mb -
Precipitation 0.00 in0.0 mm - -
Hour Temp Dew Point Humidity Winds Wind Gusts Pressure Precip Precip Rate Daily Precip Total
12:03 AM 40.6°F4.8°C 29.3°F-1.5°C 69% 3.1 mph WSW5.0 kmh WSW 6.9 mph11.1 kmh 29.69 in1005.4 mb 0.00 in0.0 mm 0.00 in0.0 mm 0.00 in0.0 mm
12:28 AM 40.6°F4.8°C 29.3°F-1.5°C 69% 3.8 mph WSW6.1 kmh WSW 8.1 mph13.0 kmh 29.70 in1005.8 mb 0.00 in0.0 mm 0.00 in0.0 mm 0.00 in0.0 mm
12:48 AM 40.3°F4.6°C 28.9°F-1.7°C 69% 3.8 mph WSW6.1 kmh WSW 9.8 mph15.8 kmh 29.71 in1006.1 mb 0.00 in0.0 mm 0.00 in0.0 mm 0.00 in0.0 mm
01:08 AM 40.1°F4.5°C 28.8°F-1.8°C 69% 4.3 mph W6.9 kmh W 10.5 mph16.9 kmh 29.72 in1006.4 mb 0.00 in0.0 mm 0.00 in0.0 mm 0.00 in0.0 mm
01:35 AM 39.9°F4.4°C 28.6°F-1.9°C 69% 4.9 mph W7.9 kmh W 9.4 mph15.1 kmh 29.72 in1006.4 mb 0.00 in0.0 mm 0.00 in0.0 mm 0.00 in0.0 mm
01:55 AM 39.9°F4.4°C 28.6°F-1.9°C 69% 3.8 mph W6.1 kmh W 8.7 mph14.0 kmh 29.73 in1006.8 mb 0.00 in0.0 mm 0.00 in0.0 mm 0.00 in0.0 mm
02:09 AM 39.6°F4.2°C 27.9°F-2.3°C 68% 3.8 mph W6.1 kmh W 8.1 mph13.0 kmh 29.74 in1007.1 mb 0.00 in0.0 mm 0.00 in0.0 mm 0.00 in0.0 mm
02:28 AM 39.4°F4.1°C 27.7°F-2.4°C 68% 4.3 mph W6.9 kmh W 8.1 mph13.0 kmh 29.74 in1007.1 mb 0.00 in0.0 mm 0.00 in0.0 mm 0.00 in0.0 mm
02:49 AM 39.0°F3.9°C 27.3°F-2.6°C 68% 4.3 mph W6.9 kmh W 11.9 mph19.2 kmh 29.75 in1007.5 mb 0.00 in0.0 mm 0.00 in0.0 mm 0.00 in0.0 mm
03:09 AM 38.7°F3.7°C 27.0°F-2.8°C 68% 4.3 mph W6.9 kmh W 11.2 mph18.0 kmh 29.75 in1007.5 mb 0.00 in0.0 mm 0.00 in0.0 mm 0.00 in0.0 mm
03:35 AM 38.7°F3.7°C 27.0°F-2.8°C 68% 4.3 mph W6.9 kmh W 8.7 mph14.0 kmh 29.75 in1007.5 mb 0.00 in0.0 mm 0.00 in0.0 mm 0.00 in0.0 mm
03:55 AM 38.3°F3.5°C 26.6°F-3.0°C 68% 4.3 mph W6.9 kmh W 10.5 mph16.9 kmh 29.77 in1008.1 mb 0.00 in0.0 mm 0.00 in0.0 mm 0.00 in0.0 mm
04:15 AM 37.8°F3.2°C 26.1°F-3.3°C 68% 3.8 mph WSW6.1 kmh WSW 6.9 mph11.1 kmh 29.76 in1007.8 mb 0.00 in0.0 mm 0.00 in0.0 mm 0.00 in0.0 mm
04:28 AM 37.2°F2.9°C 25.9°F-3.4°C 69% 3.1 mph WSW5.0 kmh WSW 7.4 mph11.9 kmh 29.76 in1007.8 mb 0.00 in0.0 mm 0.00 in0.0 mm 0.00 in0.0 mm
04:47 AM 36.9°F2.7°C 25.5°F-3.6°C 69% 2.5 mph WSW4.0 kmh WSW 6.9 mph11.1 kmh 29.78 in1008.5 mb 0.00 in0.0 mm 0.00 in0.0 mm 0.00 in0.0 mm
05:07 AM 36.5°F2.5°C 25.3°F-3.7°C 69% 2.5 mph W4.0 kmh W 5.6 mph9.0 kmh 29.78 in1008.5 mb 0.00 in0.0 mm 0.00 in0.0 mm 0.00 in0.0 mm
05:28 AM 36.1°F2.3°C 25.0°F-3.9°C 69% 2.5 mph WSW4.0 kmh WSW 6.9 mph11.1 kmh 29.79 in1008.8 mb 0.00 in0.0 mm 0.00 in0.0 mm 0.00 in0.0 mm
05:48 AM 35.8°F2.1°C 24.6°F-4.1°C 69% 1.8 mph WSW2.9 kmh WSW 4.3 mph6.9 kmh 29.79 in1008.8 mb 0.00 in0.0 mm 0.00 in0.0 mm 0.00 in0.0 mm
06:08 AM 35.6°F2.0°C 24.4°F-4.2°C 69% 1.8 mph WSW2.9 kmh WSW 4.9 mph7.9 kmh 29.79 in1008.8 mb 0.00 in0.0 mm 0.00 in0.0 mm 0.00 in0.0 mm
06:28 AM 35.4°F1.9°C 24.3°F-4.3°C 69% 1.8 mph WSW2.9 kmh WSW 3.8 mph6.1 kmh 29.79 in1008.8 mb 0.00 in0.0 mm 0.00 in0.0 mm 0.00 in0.0 mm
06:48 AM 35.1°F1.7°C 23.9°F-4.5°C 69% 1.8 mph W2.9 kmh W 3.8 mph6.1 kmh 29.80 in1009.1 mb 0.00 in0.0 mm 0.00 in0.0 mm 0.00 in0.0 mm
07:09 AM 34.7°F1.5°C 23.5°F-4.7°C 69% 3.1 mph SW5.0 kmh SW 5.6 mph9.0 kmh 29.80 in1009.1 mb 0.00 in0.0 mm 0.00 in0.0 mm 0.00 in0.0 mm
07:29 AM 34.3°F1.3°C 23.2°F-4.9°C 69% 3.1 mph SW5.0 kmh SW 5.6 mph9.0 kmh 29.80 in1009.1 mb 0.00 in0.0 mm 0.00 in0.0 mm 0.00 in0.0 mm
07:55 AM 34.3°F1.3°C 23.2°F-4.9°C 69% 3.8 mph SW6.1 kmh SW 5.6 mph9.0 kmh 29.80 in1009.1 mb 0.00 in0.0 mm 0.00 in0.0 mm 0.00 in0.0 mm
08:15 AM 34.3°F1.3°C 23.2°F-4.9°C 69% 3.1 mph SW5.0 kmh SW 6.9 mph11.1 kmh 29.81 in1009.5 mb 0.00 in0.0 mm 0.00 in0.0 mm 0.00 in0.0 mm
08:35 AM 34.5°F1.4°C 23.7°F-4.6°C 70% 2.5 mph SW4.0 kmh SW 5.6 mph9.0 kmh 29.81 in1009.5 mb 0.00 in0.0 mm 0.00 in0.0 mm 0.00 in0.0 mm
08:55 AM 34.3°F1.3°C 23.5°F-4.7°C 70% 3.1 mph SW5.0 kmh SW 6.9 mph11.1 kmh 29.82 in1009.8 mb 0.00 in0.0 mm 0.00 in0.0 mm 0.00 in0.0 mm
09:15 AM 34.2°F1.2°C 23.4°F-4.8°C 70% 1.8 mph SW2.9 kmh SW 3.1 mph5.0 kmh 29.83 in1010.2 mb 0.00 in0.0 mm 0.00 in0.0 mm 0.00 in0.0 mm
09:21 AM 34.3°F1.3°C 23.5°F-4.7°C 70% 2.5 mph SW4.0 kmh SW 4.3 mph6.9 kmh 29.83 in1010.2 mb 0.00 in0.0 mm 0.00 in0.0 mm 0.00 in0.0 mm
09:41 AM 34.5°F1.4°C 23.7°F-4.6°C 70% 2.5 mph SW4.0 kmh SW 4.3 mph6.9 kmh 29.83 in1010.2 mb 0.00 in0.0 mm 0.00 in0.0 mm 0.00 in0.0 mm
10:01 AM 34.9°F1.6°C 24.1°F-4.4°C 70% 1.8 mph SW2.9 kmh SW 3.8 mph6.1 kmh 29.84 in1010.5 mb 0.00 in0.0 mm 0.00 in0.0 mm 0.00 in0.0 mm
10:22 AM 35.6°F2.0°C 24.8°F-4.0°C 70% 2.5 mph SW4.0 kmh SW 4.9 mph7.9 kmh 29.84 in1010.5 mb 0.00 in0.0 mm 0.00 in0.0 mm 0.00 in0.0 mm
10:41 AM 36.9°F2.7°C 25.9°F-3.4°C 70% 2.5 mph SW4.0 kmh SW 7.4 mph11.9 kmh 29.84 in1010.5 mb 0.00 in0.0 mm 0.00 in0.0 mm 0.00 in0.0 mm
11:02 AM 38.7°F3.7°C 27.7°F-2.4°C 70% 3.8 mph SW6.1 kmh SW 8.1 mph13.0 kmh 29.84 in1010.5 mb 0.00 in0.0 mm 0.00 in0.0 mm 0.00 in0.0 mm
11:22 AM 40.3°F4.6°C 29.3°F-1.5°C 70% 3.1 mph WSW5.0 kmh WSW 7.4 mph11.9 kmh 29.84 in1010.5 mb 0.00 in0.0 mm 0.00 in0.0 mm 0.00 in0.0 mm
11:42 AM 41.4°F5.2°C 30.2°F-1.0°C 70% 4.3 mph WSW6.9 kmh WSW 8.7 mph14.0 kmh 29.85 in1010.8 mb 0.00 in0.0 mm 0.00 in0.0 mm 0.00 in0.0 mm
12:03 PM 42.1°F5.6°C 30.6°F-0.8°C 69% 4.3 mph SW6.9 kmh SW 9.8 mph15.8 kmh 29.85 in1010.8 mb 0.00 in0.0 mm 0.00 in0.0 mm 0.00 in0.0 mm
12:22 PM 42.6°F5.9°C 30.7°F-0.7°C 68% 4.3 mph WSW6.9 kmh WSW 9.4 mph15.1 kmh 29.85 in1010.8 mb 0.00 in0.0 mm 0.00 in0.0 mm 0.00 in0.0 mm
12:43 PM 42.8°F6.0°C 30.6°F-0.8°C 67% 4.3 mph WSW6.9 kmh WSW 9.4 mph15.1 kmh 29.84 in1010.5 mb 0.00 in0.0 mm 0.00 in0.0 mm 0.00 in0.0 mm
01:02 PM 43.2°F6.2°C 30.6°F-0.8°C 66% 3.8 mph WSW6.1 kmh WSW 9.8 mph15.8 kmh 29.84 in1010.5 mb 0.00 in0.0 mm 0.00 in0.0 mm 0.00 in0.0 mm
01:23 PM 43.2°F6.2°C 30.6°F-0.8°C 66% 4.9 mph W7.9 kmh W 12.5 mph20.1 kmh 29.85 in1010.8 mb 0.00 in0.0 mm 0.00 in0.0 mm 0.00 in0.0 mm
01:42 PM 43.2°F6.2°C 30.2°F-1.0°C 65% 4.3 mph WSW6.9 kmh WSW 9.8 mph15.8 kmh 29.84 in1010.5 mb 0.00 in0.0 mm 0.00 in0.0 mm 0.00 in0.0 mm
02:02 PM 43.7°F6.5°C 30.6°F-0.8°C 65% 4.9 mph WSW7.9 kmh WSW 10.5 mph16.9 kmh 29.84 in1010.5 mb 0.00 in0.0 mm 0.00 in0.0 mm 0.00 in0.0 mm
02:22 PM 44.2°F6.8°C 30.7°F-0.7°C 64% 4.3 mph W6.9 kmh W 9.8 mph15.8 kmh 29.83 in1010.2 mb 0.00 in0.0 mm 0.00 in0.0 mm 0.00 in0.0 mm
02:42 PM 44.1°F6.7°C 30.6°F-0.8°C 64% 4.3 mph W6.9 kmh W 9.8 mph15.8 kmh 29.83 in1010.2 mb 0.00 in0.0 mm 0.00 in0.0 mm 0.00 in0.0 mm
03:03 PM 43.7°F6.5°C 30.2°F-1.0°C 64% 3.1 mph WSW5.0 kmh WSW 6.9 mph11.1 kmh 29.83 in1010.2 mb 0.00 in0.0 mm 0.00 in0.0 mm 0.00 in0.0 mm
03:22 PM 43.7°F6.5°C 29.8°F-1.2°C 63% 3.1 mph WSW5.0 kmh WSW 9.4 mph15.1 kmh 29.83 in1010.2 mb 0.00 in0.0 mm 0.00 in0.0 mm 0.00 in0.0 mm
03:42 PM 43.7°F6.5°C 29.1°F-1.6°C 61% 4.3 mph W6.9 kmh W 9.8 mph15.8 kmh 29.83 in1010.2 mb 0.00 in0.0 mm 0.00 in0.0 mm 0.00 in0.0 mm
04:03 PM 43.7°F6.5°C 28.4°F-2.0°C 59% 5.6 mph WSW9.0 kmh WSW 11.2 mph18.0 kmh 29.83 in1010.2 mb 0.00 in0.0 mm 0.00 in0.0 mm 0.00 in0.0 mm
04:23 PM 43.5°F6.4°C 28.2°F-2.1°C 59% 3.8 mph W6.1 kmh W 8.1 mph13.0 kmh 29.84 in1010.5 mb 0.00 in0.0 mm 0.00 in0.0 mm 0.00 in0.0 mm
04:44 PM 43.3°F6.3°C 28.0°F-2.2°C 59% 4.9 mph W7.9 kmh W 10.5 mph16.9 kmh 29.84 in1010.5 mb 0.00 in0.0 mm 0.00 in0.0 mm 0.00 in0.0 mm
05:03 PM 42.8°F6.0°C 27.5°F-2.5°C 59% 3.1 mph W5.0 kmh W 10.5 mph16.9 kmh 29.84 in1010.5 mb 0.00 in0.0 mm 0.00 in0.0 mm 0.00 in0.0 mm
05:24 PM 42.3°F5.7°C 27.3°F-2.6°C 60% 3.1 mph W5.0 kmh W 8.1 mph13.0 kmh 29.84 in1010.5 mb 0.00 in0.0 mm 0.00 in0.0 mm 0.00 in0.0 mm
05:44 PM 41.5°F5.3°C 27.1°F-2.7°C 61% 2.5 mph WSW4.0 kmh WSW 7.4 mph11.9 kmh 29.84 in1010.5 mb 0.00 in0.0 mm 0.00 in0.0 mm 0.00 in0.0 mm
06:05 PM 41.0°F5.0°C 27.0°F-2.8°C 62% 2.5 mph WSW4.0 kmh WSW 4.9 mph7.9 kmh 29.83 in1010.2 mb 0.00 in0.0 mm 0.00 in0.0 mm 0.00 in0.0 mm
06:25 PM 40.3°F4.6°C 26.6°F-3.0°C 63% 2.5 mph WSW4.0 kmh WSW 5.6 mph9.0 kmh 29.85 in1010.8 mb 0.00 in0.0 mm 0.00 in0.0 mm 0.00 in0.0 mm
06:46 PM 39.6°F4.2°C 26.1°F-3.3°C 63% 2.5 mph WSW4.0 kmh WSW 4.9 mph7.9 kmh 29.85 in1010.8 mb 0.00 in0.0 mm 0.00 in0.0 mm 0.00 in0.0 mm
07:05 PM 39.2°F4.0°C 26.1°F-3.3°C 64% 2.5 mph WSW4.0 kmh WSW 5.6 mph9.0 kmh 29.84 in1010.5 mb 0.00 in0.0 mm 0.00 in0.0 mm 0.00 in0.0 mm
07:26 PM 38.8°F3.8°C 25.7°F-3.5°C 64% 2.5 mph WSW4.0 kmh WSW 4.9 mph7.9 kmh 29.85 in1010.8 mb 0.00 in0.0 mm 0.00 in0.0 mm 0.00 in0.0 mm
07:46 PM 38.5°F3.6°C 25.7°F-3.5°C 65% 1.3 mph SW2.1 kmh SW 2.5 mph4.0 kmh 29.84 in1010.5 mb 0.00 in0.0 mm 0.00 in0.0 mm 0.00 in0.0 mm
08:06 PM 38.3°F3.5°C 25.5°F-3.6°C 65% 2.5 mph SW4.0 kmh SW 4.3 mph6.9 kmh 29.84 in1010.5 mb 0.00 in0.0 mm 0.00 in0.0 mm 0.00 in0.0 mm
08:27 PM 38.5°F3.6°C 25.7°F-3.5°C 65% 3.1 mph SW5.0 kmh SW 8.7 mph14.0 kmh 29.84 in1010.5 mb 0.00 in0.0 mm 0.00 in0.0 mm 0.00 in0.0 mm
08:46 PM 38.7°F3.7°C 25.9°F-3.4°C 65% 2.5 mph SW4.0 kmh SW 6.9 mph11.1 kmh 29.84 in1010.5 mb 0.00 in0.0 mm 0.00 in0.0 mm 0.00 in0.0 mm
09:07 PM 38.7°F3.7°C 25.9°F-3.4°C 65% 2.5 mph SW4.0 kmh SW 5.6 mph9.0 kmh 29.84 in1010.5 mb 0.00 in0.0 mm 0.00 in0.0 mm 0.00 in0.0 mm
09:27 PM 38.7°F3.7°C 26.2°F-3.2°C 66% 1.8 mph WSW2.9 kmh WSW 5.6 mph9.0 kmh 29.85 in1010.8 mb 0.00 in0.0 mm 0.00 in0.0 mm 0.00 in0.0 mm
09:47 PM 38.5°F3.6°C 26.1°F-3.3°C 66% 2.5 mph SW4.0 kmh SW 4.9 mph7.9 kmh 29.85 in1010.8 mb 0.00 in0.0 mm 0.00 in0.0 mm 0.00 in0.0 mm
10:07 PM 38.3°F3.5°C 25.9°F-3.4°C 66% 3.1 mph SW5.0 kmh SW 6.9 mph11.1 kmh 29.86 in1011.2 mb 0.00 in0.0 mm 0.00 in0.0 mm 0.00 in0.0 mm
10:27 PM 37.9°F3.3°C 25.5°F-3.6°C 66% 2.5 mph SW4.0 kmh SW 5.6 mph9.0 kmh 29.85 in1010.8 mb 0.00 in0.0 mm 0.00 in0.0 mm 0.00 in0.0 mm
10:48 PM 37.4°F3.0°C 25.3°F-3.7°C 67% 2.5 mph SW4.0 kmh SW 5.6 mph9.0 kmh 29.85 in1010.8 mb 0.00 in0.0 mm 0.00 in0.0 mm 0.00 in0.0 mm
11:02 PM 37.0°F2.8°C 25.0°F-3.9°C 67% 3.1 mph SW5.0 kmh SW 8.1 mph13.0 kmh 29.85 in1010.8 mb 0.00 in0.0 mm 0.00 in0.0 mm 0.00 in0.0 mm
11:23 PM 37.2°F2.9°C 25.2°F-3.8°C 67% 3.1 mph WSW5.0 kmh WSW 8.1 mph13.0 kmh 29.85 in1010.8 mb 0.00 in0.0 mm 0.00 in0.0 mm 0.00 in0.0 mm
11:43 PM 37.0°F2.8°C 25.0°F-3.9°C 67% 3.1 mph SW5.0 kmh SW 5.6 mph9.0 kmh 29.85 in1010.8 mb 0.00 in0.0 mm 0.00 in0.0 mm 0.00 in0.0 mm